sensor_id;sensor_type;location;lat;lon;timestamp;pressure;altitude;pressure_sealevel;temperature;humidity
57568;BME280;43403;51.948;5.922;2023-02-07T00:01:16;103973.91;;;2.37;100.00
57568;BME280;43403;51.948;5.922;2023-02-07T00:03:43;103967.94;;;2.29;100.00
57568;BME280;43403;51.948;5.922;2023-02-07T00:06:22;103968.75;;;2.35;100.00
57568;BME280;43403;51.948;5.922;2023-02-07T00:08:49;103963.66;;;2.28;100.00
57568;BME280;43403;51.948;5.922;2023-02-07T00:11:17;103968.84;;;2.26;100.00
57568;BME280;43403;51.948;5.922;2023-02-07T00:13:47;103974.94;;;2.21;100.00
57568;BME280;43403;51.948;5.922;2023-02-07T00:16:14;103962.03;;;2.14;100.00
57568;BME280;43403;51.948;5.922;2023-02-07T00:18:41;103962.94;;;2.10;100.00
57568;BME280;43403;51.948;5.922;2023-02-07T00:21:16;103955.22;;;2.06;100.00
57568;BME280;43403;51.948;5.922;2023-02-07T00:23:44;103963.03;;;2.00;100.00
57568;BME280;43403;51.948;5.922;2023-02-07T00:26:12;103963.06;;;1.96;100.00
57568;BME280;43403;51.948;5.922;2023-02-07T00:28:39;103962.25;;;1.93;100.00
57568;BME280;43403;51.948;5.922;2023-02-07T00:31:08;103963.06;;;1.96;100.00
57568;BME280;43403;51.948;5.922;2023-02-07T00:33:36;103969.97;;;1.96;100.00
57568;BME280;43403;51.948;5.922;2023-02-07T00:36:06;103969.16;;;1.92;100.00
57568;BME280;43403;51.948;5.922;2023-02-07T00:38:33;103966.63;;;1.86;100.00
57568;BME280;43403;51.948;5.922;2023-02-07T00:40:59;103961.47;;;1.82;100.00
57568;BME280;43403;51.948;5.922;2023-02-07T00:43:30;103974.44;;;1.78;100.00
57568;BME280;43403;51.948;5.922;2023-02-07T00:45:58;103968.44;;;1.72;100.00
57568;BME280;43403;51.948;5.922;2023-02-07T00:48:26;103962.41;;;1.70;100.00
57568;BME280;43403;51.948;5.922;2023-02-07T00:50:53;103963.31;;;1.67;100.00
57568;BME280;43403;51.948;5.922;2023-02-07T00:53:20;103965.00;;;1.68;100.00
57568;BME280;43403;51.948;5.922;2023-02-07T00:55:46;103963.31;;;1.69;100.00
57568;BME280;43403;51.948;5.922;2023-02-07T00:58:13;103959.88;;;1.65;100.00
57568;BME280;43403;51.948;5.922;2023-02-07T01:00:40;103961.56;;;1.68;100.00
57568;BME280;43403;51.948;5.922;2023-02-07T01:03:07;103952.13;;;1.65;100.00
57568;BME280;43403;51.948;5.922;2023-02-07T01:05:33;103959.06;;;1.57;100.00
57568;BME280;43403;51.948;5.922;2023-02-07T01:08:00;103967.69;;;1.54;100.00
57568;BME280;43403;51.948;5.922;2023-02-07T01:10:26;103957.41;;;1.50;100.00
57568;BME280;43403;51.948;5.922;2023-02-07T01:12:53;103961.66;;;1.55;100.00
57568;BME280;43403;51.948;5.922;2023-02-07T01:15:20;103961.69;;;1.54;100.00
57568;BME280;43403;51.948;5.922;2023-02-07T01:17:46;103964.25;;;1.57;100.00
57568;BME280;43403;51.948;5.922;2023-02-07T01:20:12;103956.50;;;1.55;100.00
57568;BME280;43403;51.948;5.922;2023-02-07T01:22:39;103956.53;;;1.48;100.00
57568;BME280;43403;51.948;5.922;2023-02-07T01:25:06;103947.06;;;1.48;100.00
57568;BME280;43403;51.948;5.922;2023-02-07T01:27:33;103954.84;;;1.45;100.00
57568;BME280;43403;51.948;5.922;2023-02-07T01:30:00;103966.91;;;1.46;100.00
57568;BME280;43403;51.948;5.922;2023-02-07T01:32:27;103973.81;;;1.46;100.00
57568;BME280;43403;51.948;5.922;2023-02-07T01:34:53;103969.50;;;1.45;100.00
57568;BME280;43403;51.948;5.922;2023-02-07T01:37:20;103970.38;;;1.45;100.00
57568;BME280;43403;51.948;5.922;2023-02-07T01:39:46;103969.53;;;1.42;100.00
57568;BME280;43403;51.948;5.922;2023-02-07T01:42:13;103972.91;;;1.47;100.00
57568;BME280;43403;51.948;5.922;2023-02-07T01:47:19;103965.19;;;1.45;100.00
57568;BME280;43403;51.948;5.922;2023-02-07T01:49:48;103967.78;;;1.41;100.00
57568;BME280;43403;51.948;5.922;2023-02-07T01:52:19;103962.66;;;1.34;100.00
57568;BME280;43403;51.948;5.922;2023-02-07T01:54:50;103965.25;;;1.34;100.00
57568;BME280;43403;51.948;5.922;2023-02-07T01:57:20;103963.53;;;1.33;100.00
57568;BME280;43403;51.948;5.922;2023-02-07T01:59:49;103966.13;;;1.33;100.00
57568;BME280;43403;51.948;5.922;2023-02-07T02:02:20;103967.00;;;1.31;100.00
57568;BME280;43403;51.948;5.922;2023-02-07T02:04:50;103976.50;;;1.29;100.00
57568;BME280;43403;51.948;5.922;2023-02-07T02:07:19;103970.47;;;1.27;100.00
57568;BME280;43403;51.948;5.922;2023-02-07T02:09:45;103966.19;;;1.26;100.00
57568;BME280;43403;51.948;5.922;2023-02-07T02:12:23;103967.03;;;1.28;100.00
57568;BME280;43403;51.948;5.922;2023-02-07T02:15:25;103967.88;;;1.27;100.00
57568;BME280;43403;51.948;5.922;2023-02-07T02:18:22;103969.56;;;1.29;100.00
57568;BME280;43403;51.948;5.922;2023-02-07T02:37:38;103985.19;;;1.14;100.00
57568;BME280;43403;51.948;5.922;2023-02-07T02:40:19;103986.06;;;1.14;100.00
57568;BME280;43403;51.948;5.922;2023-02-07T02:42:59;103988.63;;;1.11;100.00
57568;BME280;43403;51.948;5.922;2023-02-07T02:45:32;103980.91;;;1.08;100.00
57568;BME280;43403;51.948;5.922;2023-02-07T02:48:02;103986.13;;;1.01;100.00
57568;BME280;43403;51.948;5.922;2023-02-07T02:50:30;103980.09;;;0.97;100.00
57568;BME280;43403;51.948;5.922;2023-02-07T02:52:59;103979.28;;;0.90;100.00
57568;BME280;43403;51.948;5.922;2023-02-07T02:58:50;103990.47;;;0.86;100.00
57568;BME280;43403;51.948;5.922;2023-02-07T03:01:41;103994.81;;;0.76;100.00
57568;BME280;43403;51.948;5.922;2023-02-07T03:04:24;103987.06;;;0.81;100.00
57568;BME280;43403;51.948;5.922;2023-02-07T03:12:53;103978.41;;;0.82;100.00
57568;BME280;43403;51.948;5.922;2023-02-07T03:15:32;103983.59;;;0.84;100.00
57568;BME280;43403;51.948;5.922;2023-02-07T03:20:51;103978.44;;;0.79;100.00
57568;BME280;43403;51.948;5.922;2023-02-07T03:23:20;103976.72;;;0.76;100.00
57568;BME280;43403;51.948;5.922;2023-02-07T03:25:49;103973.28;;;0.79;100.00
57568;BME280;43403;51.948;5.922;2023-02-07T03:28:20;103974.13;;;0.79;100.00
57568;BME280;43403;51.948;5.922;2023-02-07T03:30:49;103966.38;;;0.83;100.00
57568;BME280;43403;51.948;5.922;2023-02-07T03:33:18;103965.50;;;0.82;100.00
57568;BME280;43403;51.948;5.922;2023-02-07T03:35:56;103974.13;;;0.79;100.00
57568;BME280;43403;51.948;5.922;2023-02-07T03:38:26;103976.75;;;0.75;100.00
57568;BME280;43403;51.948;5.922;2023-02-07T03:41:00;103975.00;;;0.77;100.00
57568;BME280;43403;51.948;5.922;2023-02-07T03:43:32;103984.50;;;0.73;100.00
57568;BME280;43403;51.948;5.922;2023-02-07T03:46:00;103972.44;;;0.71;100.00
57568;BME280;43403;51.948;5.922;2023-02-07T03:48:26;103967.28;;;0.69;100.00
57568;BME280;43403;51.948;5.922;2023-02-07T03:50:53;103966.44;;;0.66;100.00
57568;BME280;43403;51.948;5.922;2023-02-07T03:53:19;103972.44;;;0.65;100.00
57568;BME280;43403;51.948;5.922;2023-02-07T03:55:46;103965.56;;;0.62;100.00
57568;BME280;43403;51.948;5.922;2023-02-07T03:58:13;103977.63;;;0.63;100.00
57568;BME280;43403;51.948;5.922;2023-02-07T04:00:39;103977.63;;;0.62;100.00
57568;BME280;43403;51.948;5.922;2023-02-07T04:03:06;103964.72;;;0.58;100.00
57568;BME280;43403;51.948;5.922;2023-02-07T04:05:32;103962.13;;;0.60;100.00
57568;BME280;43403;51.948;5.922;2023-02-07T04:07:59;103961.28;;;0.58;100.00
57568;BME280;43403;51.948;5.922;2023-02-07T04:10:25;103960.44;;;0.57;100.00
57568;BME280;43403;51.948;5.922;2023-02-07T04:12:52;103969.06;;;0.55;100.00
57568;BME280;43403;51.948;5.922;2023-02-07T04:15:18;103975.91;;;0.53;100.00
57568;BME280;43403;51.948;5.922;2023-02-07T04:17:45;103968.19;;;0.50;100.00
57568;BME280;43403;51.948;5.922;2023-02-07T04:20:11;103976.81;;;0.44;100.00
57568;BME280;43403;51.948;5.922;2023-02-07T04:22:38;103971.66;;;0.41;100.00
57568;BME280;43403;51.948;5.922;2023-02-07T04:25:05;103958.75;;;0.39;100.00
57568;BME280;43403;51.948;5.922;2023-02-07T04:27:31;103954.44;;;0.37;100.00
57568;BME280;43403;51.948;5.922;2023-02-07T04:29:57;103958.75;;;0.36;100.00
57568;BME280;43403;51.948;5.922;2023-02-07T04:32:24;103958.78;;;0.30;100.00
57568;BME280;43403;51.948;5.922;2023-02-07T04:34:50;103952.75;;;0.30;100.00
57568;BME280;43403;51.948;5.922;2023-02-07T04:37:17;103944.16;;;0.28;100.00
57568;BME280;43403;51.948;5.922;2023-02-07T04:39:43;103951.91;;;0.26;100.00
57568;BME280;43403;51.948;5.922;2023-02-07T04:42:09;103942.41;;;0.25;100.00
57568;BME280;43403;51.948;5.922;2023-02-07T04:44:36;103950.19;;;0.24;100.00
57568;BME280;43403;51.948;5.922;2023-02-07T04:47:02;103951.03;;;0.24;100.00
57568;BME280;43403;51.948;5.922;2023-02-07T04:49:29;103951.91;;;0.20;100.00
57568;BME280;43403;51.948;5.922;2023-02-07T04:51:59;103949.31;;;0.22;100.00
57568;BME280;43403;51.948;5.922;2023-02-07T04:54:25;103941.56;;;0.18;100.00
57568;BME280;43403;51.948;5.922;2023-02-07T04:56:52;103939.84;;;0.19;100.00
57568;BME280;43403;51.948;5.922;2023-02-07T04:59:18;103942.44;;;0.16;100.00
57568;BME280;43403;51.948;5.922;2023-02-07T05:01:45;103937.28;;;0.05;100.00
57568;BME280;43403;51.948;5.922;2023-02-07T05:04:11;103941.59;;;0.02;100.00
57568;BME280;43403;51.948;5.922;2023-02-07T05:06:37;103934.72;;;-0.03;100.00
57568;BME280;43403;51.948;5.922;2023-02-07T05:09:04;103922.66;;;-0.07;100.00
57568;BME280;43403;51.948;5.922;2023-02-07T05:11:30;103929.56;;;-0.10;100.00
57568;BME280;43403;51.948;5.922;2023-02-07T05:13:57;103933.84;;;-0.12;100.00
57568;BME280;43403;51.948;5.922;2023-02-07T05:16:23;103930.41;;;-0.16;100.00
57568;BME280;43403;51.948;5.922;2023-02-07T05:18:49;103938.16;;;-0.14;100.00
57568;BME280;43403;51.948;5.922;2023-02-07T05:21:16;103928.69;;;-0.14;100.00
57568;BME280;43403;51.948;5.922;2023-02-07T05:23:42;103933.84;;;-0.14;100.00
57568;BME280;43403;51.948;5.922;2023-02-07T05:26:09;103937.28;;;-0.18;100.00
57568;BME280;43403;51.948;5.922;2023-02-07T05:28:35;103937.31;;;-0.15;100.00
57568;BME280;43403;51.948;5.922;2023-02-07T05:31:01;103936.47;;;-0.15;100.00
57568;BME280;43403;51.948;5.922;2023-02-07T05:33:28;103942.44;;;-0.18;100.00
57568;BME280;43403;51.948;5.922;2023-02-07T05:35:54;103946.78;;;-0.17;100.00
57568;BME280;43403;51.948;5.922;2023-02-07T05:38:21;103957.09;;;-0.17;100.00
57568;BME280;43403;51.948;5.922;2023-02-07T05:40:47;103957.09;;;-0.17;100.00
57568;BME280;43403;51.948;5.922;2023-02-07T05:43:14;103970.84;;;-0.19;100.00
57568;BME280;43403;51.948;5.922;2023-02-07T05:45:41;103963.94;;;-0.24;100.00
57568;BME280;43403;51.948;5.922;2023-02-07T05:48:07;103976.88;;;-0.27;100.00
57568;BME280;43403;51.948;5.922;2023-02-07T05:50:34;103982.91;;;-0.23;100.00
57568;BME280;43403;51.948;5.922;2023-02-07T05:53:01;103983.75;;;-0.16;100.00
57568;BME280;43403;51.948;5.922;2023-02-07T05:55:28;103991.47;;;-0.16;100.00
57568;BME280;43403;51.948;5.922;2023-02-07T05:57:55;103991.47;;;-0.18;100.00
57568;BME280;43403;51.948;5.922;2023-02-07T06:00:21;103998.38;;;-0.15;100.00
57568;BME280;43403;51.948;5.922;2023-02-07T06:02:48;104001.81;;;-0.13;100.00
57568;BME280;43403;51.948;5.922;2023-02-07T06:05:16;104005.25;;;-0.07;100.00
57568;BME280;43403;51.948;5.922;2023-02-07T06:07:43;103998.38;;;-0.05;100.00
57568;BME280;43403;51.948;5.922;2023-02-07T06:10:10;104002.69;;;-0.05;100.00
57568;BME280;43403;51.948;5.922;2023-02-07T06:12:37;104003.53;;;-0.06;100.00
57568;BME280;43403;51.948;5.922;2023-02-07T06:15:03;104004.38;;;-0.04;100.00
57568;BME280;43403;51.948;5.922;2023-02-07T06:17:30;104002.66;;;-0.02;100.00
57568;BME280;43403;51.948;5.922;2023-02-07T06:19:56;104002.66;;;-0.02;100.00
57568;BME280;43403;51.948;5.922;2023-02-07T06:22:22;104001.81;;;0.01;100.00
57568;BME280;43403;51.948;5.922;2023-02-07T06:24:49;103999.25;;;0.02;100.00
57568;BME280;43403;51.948;5.922;2023-02-07T06:27:15;104007.00;;;0.02;100.00
57568;BME280;43403;51.948;5.922;2023-02-07T06:29:42;103997.53;;;0.03;100.00
57568;BME280;43403;51.948;5.922;2023-02-07T06:32:08;103998.38;;;0.06;100.00
57568;BME280;43403;51.948;5.922;2023-02-07T06:34:35;104003.53;;;0.03;100.00
57568;BME280;43403;51.948;5.922;2023-02-07T06:37:01;103999.25;;;0.01;100.00
57568;BME280;43403;51.948;5.922;2023-02-07T06:39:27;104003.53;;;0.05;100.00
57568;BME280;43403;51.948;5.922;2023-02-07T06:41:54;103985.47;;;0.03;100.00
57568;BME280;43403;51.948;5.922;2023-02-07T06:44:20;103997.53;;;0.04;100.00
57568;BME280;43403;51.948;5.922;2023-02-07T06:46:46;103994.06;;;0.07;100.00
57568;BME280;43403;51.948;5.922;2023-02-07T06:49:13;104000.97;;;0.06;100.00
57568;BME280;43403;51.948;5.922;2023-02-07T06:51:39;104005.28;;;0.04;100.00
57568;BME280;43403;51.948;5.922;2023-02-07T06:54:06;104012.13;;;0.05;100.00
57568;BME280;43403;51.948;5.922;2023-02-07T06:56:36;104020.75;;;0.10;100.00
57568;BME280;43403;51.948;5.922;2023-02-07T06:59:03;104008.69;;;0.11;100.00
57568;BME280;43403;51.948;5.922;2023-02-07T07:01:29;104018.19;;;0.12;100.00
57568;BME280;43403;51.948;5.922;2023-02-07T07:03:56;104019.88;;;0.05;100.00
57568;BME280;43403;51.948;5.922;2023-02-07T07:06:22;104026.75;;;0.09;100.00
57568;BME280;43403;51.948;5.922;2023-02-07T07:08:49;104032.78;;;0.10;100.00
57568;BME280;43403;51.948;5.922;2023-02-07T07:11:17;104039.66;;;0.09;100.00
57568;BME280;43403;51.948;5.922;2023-02-07T07:13:44;104034.50;;;0.03;100.00
57568;BME280;43403;51.948;5.922;2023-02-07T07:16:10;104039.69;;;0.05;100.00
57568;BME280;43403;51.948;5.922;2023-02-07T07:18:37;104037.94;;;0.05;100.00
57568;BME280;43403;51.948;5.922;2023-02-07T07:21:04;104033.66;;;0.03;100.00
57568;BME280;43403;51.948;5.922;2023-02-07T07:23:31;104037.97;;;0.01;100.00
57568;BME280;43403;51.948;5.922;2023-02-07T07:25:57;104040.53;;;0.01;100.00
57568;BME280;43403;51.948;5.922;2023-02-07T07:28:24;104045.72;;;0.02;100.00
57568;BME280;43403;51.948;5.922;2023-02-07T07:30:50;104042.25;;;-0.03;100.00
57568;BME280;43403;51.948;5.922;2023-02-07T07:33:17;104052.56;;;-0.05;100.00
57568;BME280;43403;51.948;5.922;2023-02-07T07:35:44;104048.28;;;-0.06;100.00
57568;BME280;43403;51.948;5.922;2023-02-07T07:38:10;104050.00;;;-0.09;100.00
57568;BME280;43403;51.948;5.922;2023-02-07T07:40:37;104050.84;;;-0.13;100.00
57568;BME280;43403;51.948;5.922;2023-02-07T07:43:03;104056.00;;;-0.10;100.00
57568;BME280;43403;51.948;5.922;2023-02-07T07:45:30;104056.00;;;-0.13;100.00
57568;BME280;43403;51.948;5.922;2023-02-07T07:47:57;104049.09;;;-0.16;100.00
57568;BME280;43403;51.948;5.922;2023-02-07T07:50:23;104051.72;;;-0.13;100.00
57568;BME280;43403;51.948;5.922;2023-02-07T07:52:50;104062.03;;;-0.13;100.00
57568;BME280;43403;51.948;5.922;2023-02-07T07:55:16;104063.72;;;-0.12;100.00
57568;BME280;43403;51.948;5.922;2023-02-07T07:57:43;104068.03;;;-0.12;100.00
57568;BME280;43403;51.948;5.922;2023-02-07T08:00:10;104078.38;;;-0.12;100.00
57568;BME280;43403;51.948;5.922;2023-02-07T08:02:36;104068.91;;;-0.13;100.00
57568;BME280;43403;51.948;5.922;2023-02-07T08:05:03;104060.31;;;-0.09;100.00
57568;BME280;43403;51.948;5.922;2023-02-07T08:07:30;104063.72;;;-0.12;100.00
57568;BME280;43403;51.948;5.922;2023-02-07T08:09:56;104064.63;;;-0.11;100.00
57568;BME280;43403;51.948;5.922;2023-02-07T08:12:22;104062.03;;;-0.10;100.00
57568;BME280;43403;51.948;5.922;2023-02-07T08:14:49;104066.34;;;-0.06;100.00
57568;BME280;43403;51.948;5.922;2023-02-07T08:17:15;104062.03;;;-0.07;100.00
57568;BME280;43403;51.948;5.922;2023-02-07T08:19:42;104061.16;;;-0.12;100.00
57568;BME280;43403;51.948;5.922;2023-02-07T08:22:08;104060.31;;;-0.11;100.00
57568;BME280;43403;51.948;5.922;2023-02-07T08:24:35;104055.13;;;-0.12;100.00
57568;BME280;43403;51.948;5.922;2023-02-07T08:27:02;104054.28;;;-0.11;100.00
57568;BME280;43403;51.948;5.922;2023-02-07T08:29:29;104064.59;;;-0.07;100.00
57568;BME280;43403;51.948;5.922;2023-02-07T08:31:55;104050.84;;;-0.09;100.00
57568;BME280;43403;51.948;5.922;2023-02-07T08:34:22;104058.59;;;-0.03;100.00
57568;BME280;43403;51.948;5.922;2023-02-07T08:36:51;104053.44;;;-0.01;100.00
57568;BME280;43403;51.948;5.922;2023-02-07T08:39:18;104061.16;;;-0.03;100.00
57568;BME280;43403;51.948;5.922;2023-02-07T08:41:45;104050.84;;;-0.01;100.00
57568;BME280;43403;51.948;5.922;2023-02-07T08:44:16;104043.09;;;-0.03;100.00
57568;BME280;43403;51.948;5.922;2023-02-07T08:46:42;104043.97;;;-0.02;100.00
57568;BME280;43403;51.948;5.922;2023-02-07T08:49:09;104046.56;;;0.07;100.00
57568;BME280;43403;51.948;5.922;2023-02-07T08:51:36;104054.31;;;0.12;100.00
57568;BME280;43403;51.948;5.922;2023-02-07T08:54:05;104057.75;;;0.18;100.00
57568;BME280;43403;51.948;5.922;2023-02-07T08:56:32;104063.78;;;0.22;100.00
57568;BME280;43403;51.948;5.922;2023-02-07T08:59:00;104056.91;;;0.26;100.00
57568;BME280;43403;51.948;5.922;2023-02-07T09:01:26;104057.75;;;0.29;100.00
57568;BME280;43403;51.948;5.922;2023-02-07T09:03:54;104052.59;;;0.34;100.00
57568;BME280;43403;51.948;5.922;2023-02-07T09:06:28;104057.75;;;0.34;100.00
57568;BME280;43403;51.948;5.922;2023-02-07T09:08:55;104045.69;;;0.31;100.00
57568;BME280;43403;51.948;5.922;2023-02-07T09:11:22;104064.63;;;0.41;100.00
57568;BME280;43403;51.948;5.922;2023-02-07T09:13:49;104056.88;;;0.44;100.00
57568;BME280;43403;51.948;5.922;2023-02-07T09:16:15;104051.72;;;0.46;100.00
57568;BME280;43403;51.948;5.922;2023-02-07T09:18:42;104050.00;;;0.48;100.00
57568;BME280;43403;51.948;5.922;2023-02-07T09:21:10;104054.28;;;0.52;100.00
57568;BME280;43403;51.948;5.922;2023-02-07T09:23:37;104050.84;;;0.57;100.00
57568;BME280;43403;51.948;5.922;2023-02-07T09:26:05;104049.13;;;0.69;100.00
57568;BME280;43403;51.948;5.922;2023-02-07T09:28:35;104047.38;;;0.68;100.00
57568;BME280;43403;51.948;5.922;2023-02-07T09:31:10;104050.81;;;0.77;100.00
57568;BME280;43403;51.948;5.922;2023-02-07T09:33:38;104043.91;;;0.79;100.00
57568;BME280;43403;51.948;5.922;2023-02-07T09:36:05;104039.59;;;0.80;100.00
57568;BME280;43403;51.948;5.922;2023-02-07T09:38:31;104030.97;;;0.90;100.00
57568;BME280;43403;51.948;5.922;2023-02-07T09:40:58;104028.38;;;0.90;100.00
57568;BME280;43403;51.948;5.922;2023-02-07T09:43:39;104036.97;;;1.00;100.00
57568;BME280;43403;51.948;5.922;2023-02-07T09:46:26;104038.66;;;0.99;100.00
57568;BME280;43403;51.948;5.922;2023-02-07T09:49:03;104036.09;;;1.04;100.00
57568;BME280;43403;51.948;5.922;2023-02-07T09:51:33;104029.22;;;0.98;100.00
57568;BME280;43403;51.948;5.922;2023-02-07T09:54:19;104024.91;;;1.01;100.00
57568;BME280;43403;51.948;5.922;2023-02-07T09:56:53;104030.88;;;1.06;100.00
57568;BME280;43403;51.948;5.922;2023-02-07T10:02:24;104029.16;;;1.08;100.00
57568;BME280;43403;51.948;5.922;2023-02-07T10:04:54;104036.91;;;1.09;100.00
57568;BME280;43403;51.948;5.922;2023-02-07T10:07:23;104035.19;;;1.14;100.00
57568;BME280;43403;51.948;5.922;2023-02-07T10:09:50;104028.28;;;1.18;100.00
57568;BME280;43403;51.948;5.922;2023-02-07T10:12:21;104032.56;;;1.22;100.00
57568;BME280;43403;51.948;5.922;2023-02-07T10:17:36;104028.22;;;1.33;100.00
57568;BME280;43403;51.948;5.922;2023-02-07T10:20:31;104029.03;;;1.38;100.00
57568;BME280;43403;51.948;5.922;2023-02-07T10:26:35;104035.00;;;1.48;100.00
57568;BME280;43403;51.948;5.922;2023-02-07T10:31:46;104042.69;;;1.65;100.00
57568;BME280;43403;51.948;5.922;2023-02-07T10:34:23;104040.06;;;1.68;100.00
57568;BME280;43403;51.948;5.922;2023-02-07T10:36:57;104032.28;;;1.71;100.00
57568;BME280;43403;51.948;5.922;2023-02-07T10:39:36;104035.69;;;1.80;100.00
57568;BME280;43403;51.948;5.922;2023-02-07T10:42:04;104027.03;;;1.85;100.00
57568;BME280;43403;51.948;5.922;2023-02-07T10:44:31;104036.44;;;1.95;100.00
57568;BME280;43403;51.948;5.922;2023-02-07T10:47:00;104038.94;;;2.06;100.00
57568;BME280;43403;51.948;5.922;2023-02-07T10:49:29;104034.50;;;2.19;100.00
57568;BME280;43403;51.948;5.922;2023-02-07T10:51:58;104036.16;;;2.29;100.00
57568;BME280;43403;51.948;5.922;2023-02-07T10:54:27;104037.81;;;2.36;100.00
57568;BME280;43403;51.948;5.922;2023-02-07T10:57:00;104041.13;;;2.51;100.00
57568;BME280;43403;51.948;5.922;2023-02-07T11:05:39;104040.81;;;2.85;100.00
57568;BME280;43403;51.948;5.922;2023-02-07T11:08:16;104035.47;;;2.97;100.00
57568;BME280;43403;51.948;5.922;2023-02-07T11:10:45;104029.25;;;3.10;100.00
57568;BME280;43403;51.948;5.922;2023-02-07T11:13:18;104033.47;;;3.19;100.00
57568;BME280;43403;51.948;5.922;2023-02-07T11:15:49;104030.72;;;3.31;100.00
57568;BME280;43403;51.948;5.922;2023-02-07T11:21:23;104030.28;;;3.61;100.00
57568;BME280;43403;51.948;5.922;2023-02-07T11:23:52;104025.81;;;3.70;100.00
57568;BME280;43403;51.948;5.922;2023-02-07T11:26:22;104013.53;;;3.82;100.00
57568;BME280;43403;51.948;5.922;2023-02-07T11:28:59;104019.44;;;3.91;100.00
57568;BME280;43403;51.948;5.922;2023-02-07T11:31:29;104019.31;;;3.99;100.00
57568;BME280;43403;51.948;5.922;2023-02-07T11:36:52;104018.00;;;4.26;100.00
57568;BME280;43403;51.948;5.922;2023-02-07T11:39:21;104004.84;;;4.35;100.00
57568;BME280;43403;51.948;5.922;2023-02-07T11:41:59;104005.41;;;4.53;100.00
57568;BME280;43403;51.948;5.922;2023-02-07T11:44:27;104006.81;;;4.69;100.00
57568;BME280;43403;51.948;5.922;2023-02-07T11:47:01;104004.13;;;4.74;100.00
57568;BME280;43403;51.948;5.922;2023-02-07T11:49:40;104003.91;;;4.85;100.00
57568;BME280;43403;51.948;5.922;2023-02-07T11:52:07;103997.78;;;4.87;98.02
57568;BME280;43403;51.948;5.922;2023-02-07T11:54:35;103993.16;;;5.02;100.00
57568;BME280;43403;51.948;5.922;2023-02-07T11:57:12;103985.94;;;5.14;100.00
57568;BME280;43403;51.948;5.922;2023-02-07T11:59:46;103992.59;;;5.28;100.00
57568;BME280;43403;51.948;5.922;2023-02-07T12:02:19;103994.94;;;5.39;99.63
57568;BME280;43403;51.948;5.922;2023-02-07T12:04:46;103988.72;;;5.46;97.77
57568;BME280;43403;51.948;5.922;2023-02-07T12:07:28;103985.75;;;5.61;95.42
57568;BME280;43403;51.948;5.922;2023-02-07T12:10:02;103982.06;;;5.70;94.92
57568;BME280;43403;51.948;5.922;2023-02-07T12:12:35;103985.97;;;5.88;96.54
57568;BME280;43403;51.948;5.922;2023-02-07T12:18:19;103980.31;;;6.08;93.46
57568;BME280;43403;51.948;5.922;2023-02-07T12:23:33;103969.22;;;6.32;90.13
57568;BME280;43403;51.948;5.922;2023-02-07T12:26:20;103966.50;;;6.37;85.30
57568;BME280;43403;51.948;5.922;2023-02-07T12:29:19;103960.97;;;6.48;87.86
57568;BME280;43403;51.948;5.922;2023-02-07T12:37:14;103961.41;;;6.64;85.34
57568;BME280;43403;51.948;5.922;2023-02-07T12:42:45;103970.44;;;6.82;85.48
57568;BME280;43403;51.948;5.922;2023-02-07T12:45:17;103974.66;;;6.86;87.01
57568;BME280;43403;51.948;5.922;2023-02-07T12:48:00;103978.63;;;6.99;84.54
57568;BME280;43403;51.948;5.922;2023-02-07T13:01:21;103968.34;;;7.23;83.74
57568;BME280;43403;51.948;5.922;2023-02-07T13:10:08;103954.56;;;7.46;84.06
57568;BME280;43403;51.948;5.922;2023-02-07T13:15:26;103953.38;;;7.56;79.22
57568;BME280;43403;51.948;5.922;2023-02-07T13:20:44;103950.81;;;7.55;80.78
57568;BME280;43403;51.948;5.922;2023-02-07T13:23:20;103957.72;;;7.57;80.68
57568;BME280;43403;51.948;5.922;2023-02-07T13:25:50;103950.63;;;7.61;77.61
57568;BME280;43403;51.948;5.922;2023-02-07T13:28:28;103949.19;;;7.77;80.53
57568;BME280;43403;51.948;5.922;2023-02-07T13:30:58;103946.28;;;7.86;79.77
57568;BME280;43403;51.948;5.922;2023-02-07T13:36:02;103951.47;;;7.88;79.13
57568;BME280;43403;51.948;5.922;2023-02-07T13:38:55;103948.72;;;7.91;74.76
57568;BME280;43403;51.948;5.922;2023-02-07T13:44:21;103938.03;;;7.99;77.21
57568;BME280;43403;51.948;5.922;2023-02-07T13:49:44;103926.28;;;8.10;75.16
57568;BME280;43403;51.948;5.922;2023-02-07T13:52:34;103931.28;;;8.17;75.83
57568;BME280;43403;51.948;5.922;2023-02-07T13:57:45;103923.63;;;8.12;70.45
57568;BME280;43403;51.948;5.922;2023-02-07T14:00:55;103930.31;;;8.19;73.14
57568;BME280;43403;51.948;5.922;2023-02-07T14:03:27;103929.69;;;8.12;70.35
57568;BME280;43403;51.948;5.922;2023-02-07T14:06:20;103922.78;;;8.11;71.77
57568;BME280;43403;51.948;5.922;2023-02-07T14:09:44;103919.06;;;8.17;75.36
57568;BME280;43403;51.948;5.922;2023-02-07T14:11:49;103914.03;;;8.11;72.40
57568;BME280;43403;51.948;5.922;2023-02-07T14:14:27;103912.63;;;8.02;68.65
57568;BME280;43403;51.948;5.922;2023-02-07T14:16:59;103910.84;;;7.78;66.47
57568;BME280;43403;51.948;5.922;2023-02-07T14:28:06;103914.34;;;7.51;74.03
57568;BME280;43403;51.948;5.922;2023-02-07T14:30:36;103922.34;;;7.47;74.21
57568;BME280;43403;51.948;5.922;2023-02-07T14:35:33;103928.81;;;7.35;73.95
57568;BME280;43403;51.948;5.922;2023-02-07T14:45:59;103941.75;;;7.11;73.16
57568;BME280;43403;51.948;5.922;2023-02-07T14:51:11;103936.19;;;6.94;73.93
57568;BME280;43403;51.948;5.922;2023-02-07T14:53:40;103928.50;;;6.88;75.13
57568;BME280;43403;51.948;5.922;2023-02-07T14:56:24;103933.03;;;6.83;74.74
57568;BME280;43403;51.948;5.922;2023-02-07T14:58:54;103932.31;;;6.78;75.06
57568;BME280;43403;51.948;5.922;2023-02-07T15:01:23;103936.00;;;6.70;71.72
57568;BME280;43403;51.948;5.922;2023-02-07T15:04:04;103932.59;;;6.68;74.62
57568;BME280;43403;51.948;5.922;2023-02-07T15:06:43;103937.16;;;6.60;73.62
57568;BME280;43403;51.948;5.922;2023-02-07T15:09:26;103930.25;;;6.59;73.98